createdAt,value
2018-09-24T00:02:44.589Z,10.60
2018-09-24T00:07:49.087Z,10.70
2018-09-24T00:12:52.479Z,10.50
2018-09-24T00:17:57.051Z,10.40
2018-09-24T00:23:00.409Z,10.30
2018-09-24T00:28:15.765Z,10.20
2018-09-24T00:33:19.699Z,10.30
2018-09-24T00:38:24.447Z,10.10
2018-09-24T00:43:27.866Z,10.00
2018-09-24T00:48:31.729Z,10.00
2018-09-24T00:53:36.569Z,10.00
2018-09-24T00:58:40.848Z,10.00
2018-09-24T01:03:44.434Z,9.90
2018-09-24T01:08:47.813Z,9.80
2018-09-24T01:13:51.112Z,9.80
2018-09-24T01:18:55.096Z,9.80
2018-09-24T01:23:58.408Z,9.60
2018-09-24T01:29:01.843Z,9.50
2018-09-24T01:34:05.199Z,9.40
2018-09-24T01:39:09.014Z,9.30
2018-09-24T01:44:12.333Z,9.30
2018-09-24T01:49:15.697Z,9.10
2018-09-24T01:54:19.713Z,9.00
2018-09-24T01:59:23.021Z,9.00
2018-09-24T02:04:26.656Z,8.90
2018-09-24T02:09:31.654Z,8.80
2018-09-24T02:14:35.222Z,8.80
2018-09-24T02:19:54.717Z,8.50
2018-09-24T02:24:59.184Z,8.60
2018-09-24T02:30:02.524Z,8.70
2018-09-24T02:35:05.899Z,8.60
2018-09-24T02:40:17.773Z,8.60
2018-09-24T02:45:21.357Z,8.50
2018-09-24T02:50:35.118Z,8.50
2018-09-24T02:55:38.480Z,8.60
2018-09-24T03:00:41.882Z,8.70
2018-09-24T03:05:45.510Z,8.80
2018-09-24T03:10:48.779Z,8.80
2018-09-24T03:15:52.104Z,8.90
2018-09-24T03:20:55.512Z,8.80
2018-09-24T03:25:58.877Z,8.70
2018-09-24T03:31:02.351Z,8.80
2018-09-24T03:36:05.701Z,8.60
2018-09-24T03:41:09.059Z,8.70
2018-09-24T03:46:12.364Z,8.60
2018-09-24T03:51:15.787Z,8.60
2018-09-24T03:56:29.125Z,8.50
2018-09-24T04:01:33.119Z,8.50
2018-09-24T04:07:51.755Z,8.40
2018-09-24T04:13:01.739Z,8.30
2018-09-24T04:23:45.041Z,8.20
2018-09-24T04:31:29.145Z,8.20
2018-09-24T04:36:37.898Z,7.90
2018-09-24T04:41:46.441Z,7.90
2018-09-24T04:46:57.092Z,8.00
2018-09-24T04:52:05.849Z,7.90
2018-09-24T04:57:15.253Z,7.90
2018-09-24T05:02:24.797Z,7.90
2018-09-24T05:07:33.471Z,8.00
2018-09-24T05:12:42.109Z,8.00
2018-09-24T05:17:50.683Z,8.00
2018-09-24T05:22:59.274Z,8.10
2018-09-24T05:28:07.808Z,8.00
2018-09-24T05:33:16.649Z,8.00
2018-09-24T05:38:25.575Z,8.00
2018-09-24T05:43:34.184Z,8.10
2018-09-24T05:48:42.775Z,8.20
2018-09-24T05:53:51.484Z,8.20
2018-09-24T05:59:00.182Z,8.30
2018-09-24T06:04:08.887Z,8.40
2018-09-24T06:09:17.628Z,8.50
2018-09-24T06:14:26.341Z,8.80
2018-09-24T06:19:34.886Z,9.00
2018-09-24T06:24:43.614Z,9.10
2018-09-24T06:29:52.422Z,9.20
2018-09-24T06:35:01.439Z,9.30
2018-09-24T06:40:10.091Z,9.60
2018-09-24T06:45:18.856Z,9.70
2018-09-24T06:50:27.803Z,9.90
2018-09-24T06:55:37.550Z,10.20
2018-09-24T07:00:46.051Z,10.30
2018-09-24T07:05:55.343Z,10.60
2018-09-24T07:11:04.630Z,10.90
2018-09-24T07:16:13.440Z,10.90
2018-09-24T07:21:22.915Z,11.10
2018-09-24T07:26:32.604Z,11.30
2018-09-24T07:31:49.258Z,11.30
2018-09-24T07:36:58.717Z,11.60
2018-09-24T07:42:07.756Z,11.70
2018-09-24T07:47:17.412Z,12.00
2018-09-24T07:52:26.203Z,12.30
2018-09-24T07:57:34.953Z,12.60
2018-09-24T08:02:43.585Z,12.50
2018-09-24T08:07:52.333Z,12.50
2018-09-24T08:13:01.674Z,12.60
2018-09-24T08:18:10.474Z,12.90
2018-09-24T08:23:18.994Z,13.10
2018-09-24T08:28:27.621Z,13.20
2018-09-24T08:33:36.335Z,13.40
2018-09-24T08:38:45.115Z,13.70
2018-09-24T08:43:53.793Z,14.10
2018-09-24T08:49:03.141Z,14.50
2018-09-24T08:54:12.229Z,14.50
2018-09-24T08:59:20.919Z,14.70
2018-09-24T09:04:29.725Z,14.90
2018-09-24T09:09:38.439Z,15.40
2018-09-24T09:14:47.709Z,16.10
2018-09-24T09:19:56.474Z,16.10
2018-09-24T09:25:13.710Z,16.10
2018-09-24T09:30:22.823Z,16.20
2018-09-24T09:35:31.625Z,17.00
2018-09-24T09:40:40.361Z,17.20
2018-09-24T09:45:49.088Z,17.00
2018-09-24T09:50:57.810Z,17.20
2018-09-24T09:56:06.545Z,17.20
2018-09-24T10:01:20.018Z,17.70
2018-09-24T10:06:28.774Z,18.10
2018-09-24T10:11:37.546Z,18.30
2018-09-24T10:16:46.288Z,18.80
2018-09-24T10:21:55.100Z,18.00
2018-09-24T10:27:05.549Z,17.90
2018-09-24T10:32:14.994Z,17.90
2018-09-24T10:37:23.943Z,17.60
2018-09-24T10:42:34.920Z,16.90
2018-09-24T10:47:43.447Z,16.50
2018-09-24T10:52:56.033Z,16.30
2018-09-24T10:58:04.585Z,16.40
2018-09-24T11:03:15.228Z,16.00
2018-09-24T11:08:23.993Z,16.20
2018-09-24T11:13:38.808Z,17.10
2018-09-24T11:18:48.106Z,17.80
2018-09-24T11:23:58.950Z,18.70
2018-09-24T11:29:08.015Z,18.80
2018-09-24T11:34:16.718Z,18.60
2018-09-24T11:39:25.559Z,18.30
2018-09-24T11:44:34.548Z,18.30
2018-09-24T11:49:43.716Z,17.80
2018-09-24T11:54:52.394Z,17.60
2018-09-24T12:00:00.977Z,18.80
2018-09-24T12:05:12.378Z,19.20
2018-09-24T12:10:21.102Z,18.60
2018-09-24T12:15:29.642Z,18.90
2018-09-24T12:20:38.353Z,18.90
2018-09-24T12:25:47.166Z,18.60
2018-09-24T12:30:56.348Z,18.90
2018-09-24T12:36:05.206Z,18.60
2018-09-24T12:41:13.910Z,17.90
2018-09-24T12:46:22.841Z,18.60
2018-09-24T12:51:31.579Z,18.90
2018-09-24T12:56:40.280Z,18.60
2018-09-24T13:01:49.100Z,19.30
2018-09-24T13:06:57.825Z,19.60
2018-09-24T13:12:06.874Z,20.30
2018-09-24T13:17:15.758Z,21.30
2018-09-24T13:22:24.597Z,21.10
2018-09-24T13:27:33.199Z,20.80
2018-09-24T13:32:41.964Z,20.30
2018-09-24T13:37:50.564Z,19.20
2018-09-24T13:42:59.404Z,18.70
2018-09-24T13:48:08.589Z,18.30
2018-09-24T13:53:17.563Z,18.50
2018-09-24T13:58:26.271Z,19.40
2018-09-24T14:03:39.982Z,20.00
2018-09-24T14:08:48.662Z,20.90
2018-09-24T14:13:57.434Z,21.00
2018-09-24T14:19:13.581Z,20.90
2018-09-24T14:24:23.671Z,21.20
2018-09-24T14:29:34.380Z,19.90
2018-09-24T14:34:42.987Z,19.60
2018-09-24T14:39:51.753Z,19.50
2018-09-24T14:45:00.449Z,19.30
2018-09-24T14:50:09.678Z,19.10
2018-09-24T14:55:18.265Z,18.60
2018-09-24T15:00:27.096Z,18.30
2018-09-24T15:05:35.800Z,18.10
2018-09-24T15:10:44.575Z,17.90
2018-09-24T15:15:53.360Z,17.70
2018-09-24T15:21:02.044Z,17.80
2018-09-24T15:26:10.613Z,17.90
2018-09-24T15:31:19.229Z,17.90
2018-09-24T15:36:28.245Z,18.30
2018-09-24T15:41:36.917Z,18.30
2018-09-24T15:46:45.592Z,18.20
2018-09-24T15:51:54.198Z,17.70
2018-09-24T15:57:02.911Z,17.00
2018-09-24T16:02:29.263Z,16.50
2018-09-24T16:07:38.794Z,16.60
2018-09-24T16:12:48.034Z,16.30
2018-09-24T16:17:56.796Z,16.10
2018-09-24T16:23:06.280Z,15.60
2018-09-24T16:28:15.158Z,15.60
2018-09-24T16:33:23.738Z,15.40
2018-09-24T16:38:36.644Z,15.20
2018-09-24T16:43:45.205Z,15.30
2018-09-24T16:48:54.704Z,15.20
2018-09-24T16:54:03.532Z,15.10
2018-09-24T16:59:13.336Z,15.30
2018-09-24T17:04:25.872Z,15.10
2018-09-24T17:09:35.694Z,15.10
2018-09-24T17:14:44.380Z,14.70
2018-09-24T17:19:53.772Z,14.70
2018-09-24T17:25:03.439Z,14.70
2018-09-24T17:30:12.271Z,14.40
2018-09-24T17:35:21.195Z,14.20
2018-09-24T17:40:30.602Z,14.00
2018-09-24T17:45:39.860Z,13.80
2018-09-24T17:50:51.778Z,13.70
2018-09-24T17:56:00.564Z,13.70
2018-09-24T18:01:09.622Z,13.60
2018-09-24T18:06:18.495Z,13.40
2018-09-24T18:11:27.440Z,13.40
2018-09-24T18:16:36.916Z,13.10
2018-09-24T18:21:48.784Z,12.90
2018-09-24T18:26:58.413Z,12.70
2018-09-24T18:32:12.223Z,12.50
2018-09-24T18:37:30.600Z,12.50
2018-09-24T18:58:51.759Z,12.60
2018-09-24T19:04:07.654Z,12.80
2018-09-24T19:09:16.574Z,12.70
2018-09-24T19:14:27.461Z,12.70
2018-09-24T19:19:36.430Z,12.80
2018-09-24T19:30:07.070Z,12.80
2018-09-24T19:35:16.207Z,12.80
2018-09-24T19:40:25.611Z,12.60
2018-09-24T19:45:34.550Z,12.50
2018-09-24T19:50:43.478Z,12.20
2018-09-24T19:55:52.541Z,12.00
2018-09-24T20:06:20.655Z,11.50
2018-09-24T20:11:48.769Z,11.20
2018-09-24T20:16:59.048Z,11.00
2018-09-24T20:22:08.325Z,11.10
2018-09-24T20:27:17.876Z,10.90
2018-09-24T20:32:27.315Z,10.80
2018-09-24T20:37:37.716Z,10.60
2018-09-24T20:42:46.508Z,10.50
2018-09-24T20:47:55.642Z,10.50
2018-09-24T20:53:05.066Z,10.50
2018-09-24T20:58:14.770Z,10.40
2018-09-24T21:03:26.030Z,10.30
2018-09-24T21:08:35.595Z,10.00
2018-09-24T21:13:45.267Z,9.90
2018-09-24T21:18:54.361Z,9.70
2018-09-24T21:24:03.889Z,9.80
2018-09-24T21:29:14.540Z,9.90
2018-09-24T21:34:39.547Z,9.70
2018-09-24T21:39:48.476Z,9.80
2018-09-24T21:44:59.171Z,9.80
2018-09-24T21:50:08.478Z,9.80
2018-09-24T21:55:17.843Z,9.70
2018-09-24T22:00:27.148Z,9.60
2018-09-24T22:05:36.789Z,9.50
2018-09-24T22:10:45.930Z,9.40
2018-09-24T22:15:56.393Z,9.50
2018-09-24T22:21:05.286Z,9.60
2018-09-24T22:26:16.584Z,9.70
2018-09-24T22:31:25.795Z,9.70
2018-09-24T22:36:35.060Z,9.70
2018-09-24T22:41:44.260Z,9.70
2018-09-24T22:46:54.160Z,9.60
2018-09-24T22:52:03.005Z,9.60
2018-09-24T22:57:14.087Z,9.40
2018-09-24T23:02:26.376Z,9.40
2018-09-24T23:07:35.657Z,9.30
2018-09-24T23:12:44.892Z,9.20
2018-09-24T23:17:53.974Z,9.10
2018-09-24T23:23:02.964Z,9.00
2018-09-24T23:28:11.967Z,9.00
2018-09-24T23:33:20.834Z,9.00
2018-09-24T23:38:29.852Z,8.90
2018-09-24T23:43:39.478Z,8.90
2018-09-24T23:48:48.500Z,8.80
2018-09-24T23:53:57.955Z,8.80
2018-09-24T23:59:06.924Z,8.70
